Linwood, New Jersey
Current Conditions -  °F | °C
As of 3:54 PM on Saturday 22 Nov 2014 (Local Time) from KACY Reporting Station
Clear Clear  
Wind Chill: 39°   Ceiling: Unl
Heat Index: 44°   Visibility: 10mi
Dew Point: 21°   Wind: 9mph
Humidity: 40%   Direction: 210°SSW
Pressure: 30.33"   Gusts: NA
Location:  39.35°N, 74.57°W
Report Text: KACY 222054Z 21008KT 10SM CLR 07/M06 A3033 RMK AO2 SLP272 T00671061 56021
Loading
Personal Weather Stations






























Interactive Weather Map New forecast layout! Learn more

10-Day Weather Forecast

Advertisements
Track Severe Weather on mobile